Time;durP1;ratioP1;P1;durP2;ratioP2;P2;SDS_P1;SDS_P2;PMS_P1;PMS_P2;Temp;Humidity;BMP_temperature;BMP_pressure;BME280_temperature;BME280_humidity;BME280_pressure;Samples;Min_cycle;Max_cycle;Signal;HPM_P1;HPM_P2
2023/07/17 00:02:19;;;;;;;6.93;3.50;;;;;;;26.11;42.29;101180.22;4909419;28;96875;-65
2023/07/17 00:04:45;;;;;;;7.20;3.40;;;;;;;26.25;41.68;101185.22;4907846;28;102063;-65
2023/07/17 00:07:13;;;;;;;6.43;3.25;;;;;;;26.46;41.28;101179.59;4914095;28;97799;-64
2023/07/17 00:09:39;;;;;;;10.57;3.50;;;;;;;26.39;41.08;101187.47;4906068;28;97845;-65
2023/07/17 00:12:06;;;;;;;7.28;3.50;;;;;;;26.55;40.66;101184.16;4914449;28;96824;-65
2023/07/17 00:14:32;;;;;;;7.45;3.50;;;;;;;26.38;41.28;101177.66;4909509;28;99314;-65
2023/07/17 00:16:59;;;;;;;6.80;3.13;;;;;;;26.42;41.58;101186.31;4906452;28;98976;-64
2023/07/17 00:19:25;;;;;;;7.32;3.40;;;;;;;26.34;41.53;101175.34;4907824;28;96899;-64
2023/07/17 00:21:51;;;;;;;8.90;3.80;;;;;;;26.16;41.38;101181.50;4912970;28;96942;-65
2023/07/17 00:24:19;;;;;;;6.75;2.90;;;;;;;26.64;40.11;101175.16;4908187;28;98997;-65
2023/07/17 00:26:45;;;;;;;4.22;3.08;;;;;;;26.40;39.89;101170.22;4910063;28;98986;-65
2023/07/17 00:29:24;;;;;;;5.50;2.97;;;;;;;26.58;39.45;101173.84;4906565;28;96914;-66
2023/07/17 00:31:50;;;;;;;7.10;3.22;;;;;;;26.39;39.47;101171.19;4910641;28;100135;-66
2023/07/17 00:34:18;;;;;;;4.53;2.95;;;;;;;26.37;40.28;101175.94;4907901;28;99065;-65
2023/07/17 00:36:45;;;;;;;7.78;3.03;;;;;;;26.14;41.72;101169.06;4910887;28;101866;-64
2023/07/17 00:39:11;;;;;;;10.15;3.92;;;;;;;26.44;41.15;101166.22;4902986;28;96953;-65
2023/07/17 00:41:39;;;;;;;10.55;4.00;;;;;;;26.39;40.88;101160.38;4906631;28;97064;-65
2023/07/17 00:44:05;;;;;;;6.28;3.20;;;;;;;26.33;41.60;101160.09;4907046;28;100658;-65
2023/07/17 00:46:34;;;;;;;6.00;3.65;;;;;;;26.41;41.42;101163.78;4906624;28;98854;-64
2023/07/17 00:49:01;;;;;;;6.68;3.20;;;;;;;26.43;41.74;101164.50;4909002;28;97091;-64
2023/07/17 00:51:28;;;;;;;5.35;3.15;;;;;;;26.09;42.60;101165.97;4907356;28;99049;-65
2023/07/17 00:53:56;;;;;;;7.30;3.20;;;;;;;26.15;42.94;101168.09;4911812;28;98525;-65
2023/07/17 00:56:22;;;;;;;6.57;2.80;;;;;;;25.98;43.54;101163.41;4907722;28;97514;-65
2023/07/17 00:58:50;;;;;;;8.20;3.30;;;;;;;26.01;43.61;101158.56;4909064;28;97674;-64
2023/07/17 01:01:17;;;;;;;5.40;3.25;;;;;;;25.98;43.64;101160.69;4909649;28;98740;-65
2023/07/17 01:03:44;;;;;;;6.90;3.28;;;;;;;26.06;43.04;101166.22;4909868;28;99687;-65
2023/07/17 01:06:10;;;;;;;5.18;3.40;;;;;;;25.86;42.81;101156.44;4906293;28;99097;-65
2023/07/17 01:08:37;;;;;;;4.32;3.22;;;;;;;25.97;42.17;101150.88;4908547;28;96919;-65
2023/07/17 01:11:03;;;;;;;4.35;2.83;;;;;;;25.87;42.68;101167.09;4908820;28;98689;-65
2023/07/17 01:13:30;;;;;;;6.57;2.85;;;;;;;25.78;42.70;101155.28;4905047;28;99429;-66
2023/07/17 01:15:58;;;;;;;6.03;2.85;;;;;;;25.81;42.84;101154.13;4905366;28;99481;-66
2023/07/17 01:18:24;;;;;;;7.90;3.53;;;;;;;25.93;42.54;101158.41;4908409;28;98104;-65
2023/07/17 01:20:50;;;;;;;4.63;3.40;;;;;;;25.84;42.69;101151.16;4909462;28;97777;-65
2023/07/17 01:23:18;;;;;;;6.75;2.92;;;;;;;25.82;43.14;101153.16;4906165;28;100881;-66
2023/07/17 01:25:44;;;;;;;4.60;3.30;;;;;;;26.02;42.52;101156.69;4910143;28;98809;-66
2023/07/17 01:28:11;;;;;;;8.00;3.50;;;;;;;25.99;43.07;101147.00;4906670;28;97731;-66
2023/07/17 01:30:37;;;;;;;5.35;2.90;;;;;;;26.08;42.12;101158.81;4905214;28;96860;-66
2023/07/17 01:33:03;;;;;;;6.00;3.08;;;;;;;25.91;42.79;101146.03;4907979;28;98969;-65
2023/07/17 01:35:30;;;;;;;9.73;3.50;;;;;;;26.07;42.32;101149.84;4908123;28;99044;-65
2023/07/17 01:37:56;;;;;;;5.47;3.25;;;;;;;25.89;42.47;101142.59;4907188;28;98867;-65
2023/07/17 01:40:24;;;;;;;8.98;3.25;;;;;;;25.93;42.90;101144.03;4909211;28;96914;-65
2023/07/17 01:42:50;;;;;;;9.98;3.50;;;;;;;25.86;43.24;101140.19;4906932;28;99056;-66
2023/07/17 01:45:16;;;;;;;6.97;3.35;;;;;;;25.91;43.84;101146.88;4909723;28;99030;-64
2023/07/17 01:47:43;;;;;;;6.35;3.10;;;;;;;26.01;43.18;101144.16;4897662;28;98248;-64
2023/07/17 01:50:10;;;;;;;6.07;3.10;;;;;;;25.79;43.39;101140.78;4906512;28;97362;-64
2023/07/17 01:52:36;;;;;;;6.00;3.10;;;;;;;25.83;43.25;101143.19;4902958;28;99372;-64
2023/07/17 01:55:03;;;;;;;5.28;2.78;;;;;;;25.92;42.86;101137.78;4909401;28;100414;-64
2023/07/17 01:57:30;;;;;;;9.27;3.22;;;;;;;25.92;42.36;101145.91;4906796;28;96892;-64
2023/07/17 01:59:57;;;;;;;4.95;3.10;;;;;;;25.79;42.71;101154.31;4901442;28;96982;-64
2023/07/17 02:02:24;;;;;;;4.78;3.15;;;;;;;25.68;43.29;101149.00;4908321;28;99028;-64
2023/07/17 02:04:51;;;;;;;7.07;3.28;;;;;;;25.67;43.14;101154.56;4908348;28;99085;-63
2023/07/17 02:07:19;;;;;;;7.82;2.95;;;;;;;25.54;43.55;101156.66;4904661;28;96832;-64
2023/07/17 02:09:46;;;;;;;6.80;2.97;;;;;;;25.57;41.95;101165.38;4905618;28;97016;-64
2023/07/17 02:12:12;;;;;;;6.03;2.90;;;;;;;25.54;40.24;101170.19;4906780;28;98916;-64
2023/07/17 02:14:40;;;;;;;6.90;3.20;;;;;;;25.36;40.54;101183.53;4904873;28;101863;-64
2023/07/17 02:17:06;;;;;;;6.07;3.00;;;;;;;25.22;39.81;101171.25;4901698;28;97913;-64
2023/07/17 02:19:33;;;;;;;4.30;3.28;;;;;;;25.44;39.22;101163.91;4907131;28;97795;-64
2023/07/17 02:21:59;;;;;;;5.47;2.83;;;;;;;25.55;38.99;101161.94;4909683;28;98591;-64
2023/07/17 02:24:25;;;;;;;6.47;3.33;;;;;;;25.66;38.33;101171.81;4904777;28;98876;-64
2023/07/17 02:26:53;;;;;;;4.78;3.10;;;;;;;25.78;38.07;101176.94;4906255;28;96860;-64
2023/07/17 02:29:19;;;;;;;5.40;3.10;;;;;;;25.64;38.38;101176.50;4902465;28;100124;-64
2023/07/17 02:31:48;;;;;;;7.72;3.35;;;;;;;25.63;38.38;101159.41;4911964;28;99035;-64
2023/07/17 02:34:14;;;;;;;5.90;3.55;;;;;;;25.56;38.69;101166.34;4903338;28;97701;-65
2023/07/17 02:36:41;;;;;;;6.63;3.38;;;;;;;25.35;38.96;101166.44;4908659;28;97298;-64
2023/07/17 02:39:08;;;;;;;4.95;3.15;;;;;;;25.36;39.25;101179.00;4901143;28;99055;-64
2023/07/17 02:41:34;;;;;;;5.25;2.92;;;;;;;25.19;39.98;101170.69;4913992;28;99047;-65
2023/07/17 02:44:01;;;;;;;7.97;2.42;;;;;;;25.35;39.62;101162.88;4909779;28;98971;-64
2023/07/17 02:46:27;;;;;;;3.47;2.90;;;;;;;25.28;39.62;101168.00;4911872;28;97292;-65
2023/07/17 02:48:54;;;;;;;5.10;3.30;;;;;;;25.21;39.75;101166.84;4911240;28;99059;-65
2023/07/17 02:51:21;;;;;;;8.35;3.25;;;;;;;25.11;40.13;101175.94;4900580;28;98993;-64
2023/07/17 02:53:48;;;;;;;9.27;3.72;;;;;;;24.86;40.92;101183.50;4905333;28;98812;-65
2023/07/17 02:56:14;;;;;;;7.78;3.25;;;;;;;24.76;40.14;101185.28;4910830;28;97113;-65
2023/07/17 02:58:42;;;;;;;4.50;3.17;;;;;;;24.94;39.44;101183.69;4906755;28;96917;-65
2023/07/17 03:01:08;;;;;;;4.43;3.30;;;;;;;24.82;39.63;101179.34;4907154;28;99129;-64
2023/07/17 03:03:34;;;;;;;8.50;3.45;;;;;;;24.82;39.95;101182.03;4905626;28;98064;-64
2023/07/17 03:06:02;;;;;;;6.03;3.25;;;;;;;24.80;40.54;101183.19;4908221;28;97805;-65
2023/07/17 03:08:28;;;;;;;5.75;3.58;;;;;;;24.83;40.99;101178.34;4906755;28;97201;-64
2023/07/17 03:10:55;;;;;;;9.45;3.83;;;;;;;24.90;40.46;101176.00;4910288;28;99161;-64
2023/07/17 03:13:21;;;;;;;5.90;3.40;;;;;;;24.79;40.37;101176.94;4907639;28;98855;-64
2023/07/17 03:15:48;;;;;;;6.65;3.72;;;;;;;24.62;42.01;101183.78;4912440;28;96820;-65
2023/07/17 03:18:14;;;;;;;9.98;3.70;;;;;;;24.70;42.35;101179.56;4902528;28;97203;-64
2023/07/17 03:20:43;;;;;;;7.55;3.75;;;;;;;24.73;42.00;101184.72;4909175;28;98923;-64
2023/07/17 03:23:11;;;;;;;6.93;3.30;;;;;;;24.71;42.12;101186.69;4907875;28;98906;-64
2023/07/17 03:25:37;;;;;;;6.20;3.47;;;;;;;24.58;41.98;101181.50;4908599;28;96725;-64
2023/07/17 03:28:04;;;;;;;7.20;3.25;;;;;;;24.70;41.22;101177.72;4905639;28;97654;-63
2023/07/17 03:30:31;;;;;;;5.88;3.67;;;;;;;24.62;41.41;101178.38;4902899;28;101954;-64
2023/07/17 03:32:58;;;;;;;9.65;4.05;;;;;;;24.63;41.01;101179.25;4906899;28;98816;-64
2023/07/17 03:35:24;;;;;;;7.25;3.60;;;;;;;24.48;41.43;101180.59;4904300;28;96807;-64
2023/07/17 03:37:51;;;;;;;11.55;3.85;;;;;;;24.73;41.34;101184.72;4901063;28;97690;-64
2023/07/17 03:40:18;;;;;;;7.15;3.83;;;;;;;24.52;43.28;101176.63;4908672;28;99327;-65
2023/07/17 03:42:45;;;;;;;12.60;3.78;;;;;;;24.66;43.43;101176.28;4904968;28;101567;-64
2023/07/17 03:45:11;;;;;;;7.35;3.50;;;;;;;24.48;43.60;101181.44;4909782;28;96885;-64
2023/07/17 03:47:38;;;;;;;5.50;3.30;;;;;;;24.34;44.43;101178.25;4902360;28;97328;-64
2023/07/17 03:50:05;;;;;;;7.72;3.97;;;;;;;24.40;44.12;101183.09;4908232;28;98871;-65
2023/07/17 03:52:31;;;;;;;6.50;3.63;;;;;;;24.54;43.38;101180.94;4899912;28;99621;-64
2023/07/17 03:54:58;;;;;;;7.55;3.67;;;;;;;24.55;43.10;101189.84;4902690;28;96816;-70
2023/07/17 03:57:25;;;;;;;6.53;3.65;;;;;;;24.48;44.04;101186.84;4907955;28;96907;-70
2023/07/17 03:59:53;;;;;;;7.45;3.47;;;;;;;24.80;42.61;101191.28;4903785;28;99089;-70
2023/07/17 04:02:20;;;;;;;5.60;3.78;;;;;;;24.85;42.27;101187.19;4907573;28;99047;-70
2023/07/17 04:04:47;;;;;;;4.95;3.22;;;;;;;24.85;41.89;101191.75;4909955;28;96866;-70
2023/07/17 04:07:14;;;;;;;6.38;3.63;;;;;;;24.92;41.82;101201.06;4912423;28;96826;-64
2023/07/17 04:09:40;;;;;;;5.47;3.50;;;;;;;24.88;42.57;101205.81;4909918;28;98979;-65
2023/07/17 04:12:07;;;;;;;8.18;4.07;;;;;;;25.07;41.43;101202.41;4912433;28;99369;-64
2023/07/17 04:14:35;;;;;;;8.13;4.05;;;;;;;25.01;41.52;101206.47;4908835;28;96897;-65
2023/07/17 04:17:03;;;;;;;10.93;3.80;;;;;;;25.24;40.72;101198.19;4903565;28;96850;-65
2023/07/17 04:19:30;;;;;;;9.10;3.60;;;;;;;25.38;40.35;101212.19;4904662;28;99456;-65
2023/07/17 04:21:57;;;;;;;7.57;3.70;;;;;;;25.29;40.63;101228.38;4908843;28;99616;-65
2023/07/17 04:24:23;;;;;;;8.82;4.05;;;;;;;25.10;40.80;101221.03;4909999;28;97114;-65
2023/07/17 04:26:50;;;;;;;8.70;4.03;;;;;;;24.87;40.58;101214.94;4910990;28;99471;-65
2023/07/17 04:29:16;;;;;;;9.65;3.90;;;;;;;24.94;40.32;101221.53;4907696;28;98503;-65
2023/07/17 04:31:44;;;;;;;6.57;3.85;;;;;;;24.67;40.66;101218.53;4903374;28;99050;-65
2023/07/17 04:34:10;;;;;;;6.28;4.10;;;;;;;24.99;40.26;101219.31;4908045;28;96922;-64
2023/07/17 04:36:37;;;;;;;9.52;4.32;;;;;;;25.00;39.83;101204.81;4909494;28;96931;-68
2023/07/17 04:39:04;;;;;;;7.85;3.55;;;;;;;25.27;39.15;101195.22;4910682;28;99557;-65
2023/07/17 04:41:31;;;;;;;7.57;3.95;;;;;;;25.59;38.35;101197.72;4910261;28;99660;-64
2023/07/17 04:43:57;;;;;;;11.35;3.70;;;;;;;25.49;38.62;101199.50;4909153;28;97026;-65
2023/07/17 04:46:24;;;;;;;6.18;3.45;;;;;;;25.58;38.34;101201.44;4910756;28;96843;-65
2023/07/17 04:48:52;;;;;;;7.18;3.55;;;;;;;26.01;37.77;101196.47;4908645;28;99585;-65
2023/07/17 04:51:18;;;;;;;9.60;3.83;;;;;;;25.97;37.72;101205.00;4905594;28;99258;-64
2023/07/17 04:53:45;;;;;;;9.40;4.30;;;;;;;26.07;37.69;101200.44;4905549;28;96853;-64
2023/07/17 04:56:11;;;;;;;8.85;3.83;;;;;;;26.44;36.93;101217.72;4910788;28;96884;-64
2023/07/17 04:58:38;;;;;;;9.15;4.68;;;;;;;26.28;36.84;101209.31;4901983;28;99326;-64
2023/07/17 05:01:05;;;;;;;6.88;3.80;;;;;;;26.57;36.39;101209.25;4903809;28;98985;-64
2023/07/17 05:03:32;;;;;;;7.70;3.60;;;;;;;26.61;36.14;101215.22;4905470;28;98794;-64
2023/07/17 05:06:00;;;;;;;7.53;3.67;;;;;;;26.54;36.10;101214.97;4908849;28;98626;-64
2023/07/17 05:08:27;;;;;;;5.10;3.50;;;;;;;26.29;35.98;101205.59;4900834;28;99324;-65
2023/07/17 05:10:54;;;;;;;7.53;3.20;;;;;;;25.97;37.20;101210.44;4908264;28;99020;-65
2023/07/17 05:13:20;;;;;;;9.52;3.85;;;;;;;25.90;36.95;101212.84;4906150;28;96903;-65
2023/07/17 05:15:46;;;;;;;8.15;4.60;;;;;;;25.86;37.44;101207.88;4905076;28;97012;-65
2023/07/17 05:18:13;;;;;;;8.38;4.57;;;;;;;25.67;37.81;101212.25;4909687;28;98946;-65
2023/07/17 05:20:40;;;;;;;9.43;3.70;;;;;;;25.58;38.27;101210.41;4906599;28;99099;-65
2023/07/17 05:23:07;;;;;;;9.73;3.90;;;;;;;25.67;38.34;101193.31;4908967;28;99144;-65
2023/07/17 05:25:34;;;;;;;7.57;3.78;;;;;;;25.74;38.24;101205.28;4911544;28;97100;-66
2023/07/17 05:28:00;;;;;;;7.75;4.13;;;;;;;25.64;38.79;101208.97;4910895;28;99032;-65
2023/07/17 05:30:26;;;;;;;9.25;4.00;;;;;;;25.56;38.91;101208.78;4910198;28;99799;-65
2023/07/17 05:32:53;;;;;;;7.45;4.10;;;;;;;25.94;37.95;101210.69;4902358;28;98917;-65
2023/07/17 05:35:19;;;;;;;8.38;3.67;;;;;;;26.37;37.52;101208.44;4903691;28;97382;-65
2023/07/17 05:37:45;;;;;;;9.95;4.18;;;;;;;26.39;37.08;101219.13;4910506;28;99343;-65
2023/07/17 05:40:13;;;;;;;8.88;3.88;;;;;;;26.74;36.53;101213.06;4909097;28;98873;-65
2023/07/17 05:42:39;;;;;;;11.45;6.38;;;;;;;27.21;35.87;101219.31;4905560;28;97110;-65
2023/07/17 05:45:07;;;;;;;15.48;5.60;;;;;;;27.02;36.31;101211.28;4910021;28;97851;-65
2023/07/17 05:47:34;;;;;;;10.10;3.70;;;;;;;26.67;35.73;101220.91;4906340;28;98920;-65
2023/07/17 05:50:00;;;;;;;8.20;4.32;;;;;;;27.02;34.91;101219.41;4906312;28;98275;-65
2023/07/17 05:52:26;;;;;;;8.00;3.53;;;;;;;26.80;35.10;101217.88;4903479;28;96892;-63
2023/07/17 05:54:53;;;;;;;8.73;3.95;;;;;;;27.01;34.94;101220.41;4910699;28;96828;-65
2023/07/17 05:57:20;;;;;;;8.63;3.85;;;;;;;26.94;34.73;101226.44;4900859;28;98963;-65
2023/07/17 05:59:47;;;;;;;10.98;4.47;;;;;;;27.16;34.57;101233.34;4906368;28;99230;-65
2023/07/17 06:02:14;;;;;;;9.98;3.72;;;;;;;27.18;34.50;101225.03;4903016;28;96858;-65
2023/07/17 06:04:41;;;;;;;7.18;3.72;;;;;;;27.10;34.00;101233.94;4902960;28;96895;-65
2023/07/17 06:07:08;;;;;;;5.95;3.63;;;;;;;27.04;34.25;101233.69;4913363;28;98436;-65
2023/07/17 06:09:34;;;;;;;12.98;4.47;;;;;;;27.21;34.02;101225.59;4907372;28;98973;-65
2023/07/17 06:12:01;;;;;;;7.40;3.72;;;;;;;27.23;34.18;101217.31;4906877;28;98961;-64
2023/07/17 06:14:29;;;;;;;9.65;3.97;;;;;;;27.55;33.75;101222.31;4910022;28;97696;-65
2023/07/17 06:16:55;;;;;;;7.22;3.88;;;;;;;27.64;33.46;101230.38;4905984;28;99062;-65
2023/07/17 06:19:21;;;;;;;6.60;3.80;;;;;;;27.60;32.96;101222.69;4905479;28;99109;-64
2023/07/17 06:21:48;;;;;;;5.40;3.50;;;;;;;27.96;32.41;101216.28;4906379;28;97779;-64
2023/07/17 06:24:14;;;;;;;7.47;3.75;;;;;;;27.94;32.31;101222.91;4902327;28;96975;-65
2023/07/17 06:26:42;;;;;;;9.30;3.67;;;;;;;28.02;32.07;101217.53;4908867;28;97910;-65
2023/07/17 06:29:09;;;;;;;8.23;3.83;;;;;;;28.29;31.44;101216.63;4905841;28;98878;-65
2023/07/17 06:31:37;;;;;;;9.27;3.78;;;;;;;28.67;31.11;101216.22;4903403;28;96982;-63
2023/07/17 06:34:04;;;;;;;7.93;3.28;;;;;;;28.77;31.15;101219.69;4902819;28;96887;-64
2023/07/17 06:36:31;;;;;;;6.47;4.00;;;;;;;28.47;31.55;101220.16;4907141;28;99380;-64
2023/07/17 06:38:57;;;;;;;5.57;3.35;;;;;;;28.28;32.11;101229.34;4906193;28;98977;-64
2023/07/17 06:41:24;;;;;;;12.13;3.78;;;;;;;27.71;32.37;101238.75;4906333;28;96951;-63
2023/07/17 06:43:50;;;;;;;7.32;3.75;;;;;;;27.48;32.75;101232.03;4908495;28;96934;-63
2023/07/17 06:46:17;;;;;;;7.88;3.53;;;;;;;27.12;33.52;101229.22;4906233;28;99428;-63
2023/07/17 06:48:45;;;;;;;7.18;4.13;;;;;;;26.64;33.83;101236.63;4907031;28;99053;-63
2023/07/17 06:51:11;;;;;;;8.00;3.72;;;;;;;26.92;33.86;101235.72;4909945;28;97219;-63
2023/07/17 06:53:38;;;;;;;6.80;3.78;;;;;;;27.07;33.59;101227.94;4907798;28;98991;-63
2023/07/17 06:56:04;;;;;;;9.65;4.10;;;;;;;27.55;33.09;101239.47;4903741;28;101334;-63
2023/07/17 06:58:31;;;;;;;9.18;4.05;;;;;;;27.85;32.35;101235.53;4908194;28;99990;-63
2023/07/17 07:00:58;;;;;;;8.18;3.80;;;;;;;28.34;31.46;101238.75;4904839;28;97807;-63
2023/07/17 07:03:26;;;;;;;7.35;4.03;;;;;;;28.28;31.48;101236.66;4904009;28;97040;-63
2023/07/17 07:05:56;;;;;;;6.35;3.90;;;;;;;27.67;31.89;101246.38;4903330;28;99587;-63
2023/07/17 07:08:22;;;;;;;8.68;4.00;;;;;;;27.71;32.08;101244.19;4907329;28;98982;-63
2023/07/17 07:10:51;;;;;;;7.45;4.18;;;;;;;27.73;32.12;101242.19;4912377;28;97365;-63
2023/07/17 07:13:17;;;;;;;6.05;3.95;;;;;;;27.66;32.35;101250.09;4911174;28;96924;-63
2023/07/17 07:15:43;;;;;;;9.52;3.95;;;;;;;27.31;33.08;101250.81;4905225;28;99299;-63
2023/07/17 07:18:10;;;;;;;5.15;3.90;;;;;;;27.25;33.52;101253.28;4903611;28;98985;-63
2023/07/17 07:20:37;;;;;;;7.60;3.75;;;;;;;27.28;32.95;101243.00;4906207;28;97656;-63
2023/07/17 07:23:05;;;;;;;8.10;4.53;;;;;;;28.03;32.32;101249.97;4906127;28;97923;-69
2023/07/17 07:25:31;;;;;;;7.80;3.75;;;;;;;28.09;31.49;101248.50;4907544;28;99388;-69
2023/07/17 07:27:59;;;;;;;7.60;4.20;;;;;;;28.17;31.14;101253.16;4907175;28;98980;-70
2023/07/17 07:30:25;;;;;;;6.30;3.75;;;;;;;27.91;31.61;101250.34;4906236;28;97237;-70
2023/07/17 07:32:51;;;;;;;7.28;4.03;;;;;;;28.19;31.12;101260.16;4909595;28;97275;-69
2023/07/17 07:35:18;;;;;;;6.72;3.80;;;;;;;28.68;30.68;101255.16;4907625;28;98977;-70
2023/07/17 07:37:45;;;;;;;7.47;3.50;;;;;;;28.91;30.21;101256.34;4911798;28;98888;-70
2023/07/17 07:40:13;;;;;;;7.00;4.38;;;;;;;29.13;29.50;101263.97;4910070;28;98683;-70
2023/07/17 07:42:40;;;;;;;7.32;3.70;;;;;;;29.25;29.52;101264.53;4910328;28;96925;-69
2023/07/17 07:45:07;;;;;;;5.22;3.47;;;;;;;28.96;29.23;101264.84;4908457;28;99059;-70
2023/07/17 07:47:33;;;;;;;6.60;3.42;;;;;;;28.47;29.92;101263.66;4907512;28;98871;-69
2023/07/17 07:50:00;;;;;;;8.65;4.18;;;;;;;28.83;29.75;101268.00;4908957;28;96853;-69
2023/07/17 07:52:27;;;;;;;5.10;3.65;;;;;;;28.67;29.80;101265.16;4910246;28;96863;-69
2023/07/17 07:54:53;;;;;;;7.47;3.85;;;;;;;28.76;29.71;101266.94;4908475;28;98968;-69
2023/07/17 07:57:21;;;;;;;6.18;3.95;;;;;;;29.13;29.41;101271.25;4907747;28;100721;-70
2023/07/17 07:59:49;;;;;;;9.07;3.85;;;;;;;29.44;28.62;101277.91;4907670;28;97036;-70
2023/07/17 08:02:17;;;;;;;6.10;3.60;;;;;;;29.44;28.25;101280.63;4900352;28;99114;-70
2023/07/17 08:04:43;;;;;;;8.32;3.97;;;;;;;29.46;28.24;101284.06;4907948;28;98958;-70
2023/07/17 08:07:09;;;;;;;6.60;3.63;;;;;;;28.99;28.26;101278.16;4903906;28;99064;-70
2023/07/17 08:09:36;;;;;;;7.45;4.03;;;;;;;28.75;28.78;101281.53;4905459;28;96800;-70
2023/07/17 08:12:02;;;;;;;6.05;3.72;;;;;;;28.89;28.59;101283.69;4908277;28;96961;-70
2023/07/17 08:14:30;;;;;;;7.68;3.58;;;;;;;29.04;28.96;101281.25;4907018;28;99360;-70
2023/07/17 08:16:57;;;;;;;7.63;3.33;;;;;;;29.15;28.55;101280.09;4903552;28;99154;-69
2023/07/17 08:19:23;;;;;;;10.63;4.05;;;;;;;29.17;28.46;101283.53;4907937;28;97035;-68
2023/07/17 08:21:49;;;;;;;7.97;3.83;;;;;;;29.06;28.67;101287.38;4907299;28;97586;-70
2023/07/17 08:24:16;;;;;;;10.32;3.85;;;;;;;29.04;28.20;101289.41;4903663;28;99110;-70
2023/07/17 08:26:43;;;;;;;9.07;3.33;;;;;;;28.72;28.22;101281.84;4906573;28;98983;-70
2023/07/17 08:29:10;;;;;;;7.13;3.30;;;;;;;28.58;28.86;101282.41;4905205;28;99226;-71
2023/07/17 08:31:38;;;;;;;7.82;4.03;;;;;;;28.90;28.41;101276.38;4906984;28;96930;-70
2023/07/17 08:34:05;;;;;;;6.43;3.10;;;;;;;29.20;28.31;101283.22;4904657;28;99147;-70
2023/07/17 08:36:32;;;;;;;9.38;3.47;;;;;;;29.07;27.92;101277.34;4907402;28;99072;-70
2023/07/17 08:38:59;;;;;;;7.38;3.45;;;;;;;29.15;28.16;101278.22;4909158;28;96880;-70
2023/07/17 08:41:26;;;;;;;6.63;3.83;;;;;;;29.31;27.71;101278.31;4909339;28;97653;-69
2023/07/17 08:43:52;;;;;;;8.18;3.38;;;;;;;29.44;27.69;101285.22;4905551;28;99185;-69
2023/07/17 08:46:19;;;;;;;7.55;3.50;;;;;;;29.18;28.16;101280.66;4908879;28;99212;-69
2023/07/17 08:48:47;;;;;;;8.48;3.30;;;;;;;29.22;27.82;101276.56;4906387;28;97361;-69
2023/07/17 08:51:14;;;;;;;8.15;3.38;;;;;;;29.08;27.96;101276.34;4909398;28;96866;-69
2023/07/17 08:53:43;;;;;;;5.07;2.88;;;;;;;29.34;27.76;101266.31;4907643;28;100788;-69
2023/07/17 08:56:12;;;;;;;8.32;3.40;;;;;;;29.20;27.13;101272.31;4910316;28;99857;-69
2023/07/17 08:58:40;;;;;;;11.00;3.13;;;;;;;29.38;27.31;101270.41;4906366;28;97137;-69
2023/07/17 09:01:07;;;;;;;13.10;2.97;;;;;;;29.39;26.94;101271.25;4909188;28;98184;-69
2023/07/17 09:03:36;;;;;;;8.82;3.28;;;;;;;29.56;26.86;101273.00;4903091;28;99093;-70
2023/07/17 09:06:05;;;;;;;7.95;3.58;;;;;;;29.56;26.86;101268.41;4905563;28;98834;-69
2023/07/17 09:08:32;;;;;;;6.72;2.97;;;;;;;29.23;27.22;101271.97;4905414;28;97021;-69
2023/07/17 09:11:02;;;;;;;6.95;3.65;;;;;;;29.50;27.57;101263.63;4904570;28;97452;-70
2023/07/17 09:13:36;;;;;;;10.65;3.70;;;;;;;29.90;27.58;101271.06;4903656;28;99483;-69
2023/07/17 09:16:13;;;;;;;8.63;3.38;;;;;;;29.79;27.05;101274.13;4900473;28;100658;-70
2023/07/17 09:18:39;;;;;;;6.55;2.95;;;;;;;30.01;26.56;101272.66;4904118;28;98275;-69
2023/07/17 09:21:07;;;;;;;11.30;3.42;;;;;;;29.73;26.21;101265.75;4904169;28;96802;-69
2023/07/17 09:23:39;;;;;;;5.55;2.75;;;;;;;29.55;26.76;101279.47;4903218;28;98160;-70
2023/07/17 09:26:05;;;;;;;9.68;3.33;;;;;;;29.18;26.88;101271.63;4902824;28;98870;-70
2023/07/17 09:28:37;;;;;;;13.55;3.08;;;;;;;29.28;26.64;101275.06;4906565;28;98023;-71
2023/07/17 09:31:04;;;;;;;8.90;2.90;;;;;;;29.56;26.52;101273.88;4905648;28;97509;-70
2023/07/17 09:33:30;;;;;;;7.30;3.00;;;;;;;29.70;26.22;101273.22;4905744;28;99556;-70
2023/07/17 09:35:57;;;;;;;8.32;3.13;;;;;;;29.52;26.68;101272.50;4904683;28;99948;-69
2023/07/17 09:38:26;;;;;;;9.88;3.03;;;;;;;29.58;26.53;101268.25;4902967;28;97190;-70
2023/07/17 09:40:52;;;;;;;7.15;3.40;;;;;;;29.59;26.75;101279.00;4903851;28;96961;-70
2023/07/17 09:43:29;;;;;;;8.02;3.05;;;;;;;29.71;26.97;101274.09;4903508;28;99069;-70
2023/07/17 09:45:59;;;;;;;7.32;3.42;;;;;;;29.51;26.99;101281.69;4901216;28;97759;-70
2023/07/17 09:48:27;;;;;;;8.82;3.35;;;;;;;29.83;26.72;101277.34;4906049;28;97762;-70
2023/07/17 09:50:56;;;;;;;10.68;4.13;;;;;;;29.56;26.56;101282.03;4904744;28;97452;-70
2023/07/17 09:53:23;;;;;;;13.98;3.63;;;;;;;29.40;26.25;101271.09;4906364;28;99116;-70
2023/07/17 09:55:53;;;;;;;7.90;3.38;;;;;;;29.36;26.65;101272.41;4901502;28;98879;-69
2023/07/17 09:58:22;;;;;;;8.35;3.67;;;;;;;29.31;26.49;101272.03;4904319;28;98044;-69
2023/07/17 10:00:49;;;;;;;10.10;3.40;;;;;;;29.36;26.62;101261.53;4907770;28;98287;-69
2023/07/17 10:03:20;;;;;;;9.90;3.35;;;;;;;29.49;26.41;101267.38;4899820;28;99398;-70
2023/07/17 10:05:47;;;;;;;6.43;3.35;;;;;;;29.79;26.45;101262.38;4907003;28;98342;-70
2023/07/17 10:08:16;;;;;;;8.27;3.42;;;;;;;30.05;25.79;101271.31;4907796;28;97525;-70
2023/07/17 10:10:42;;;;;;;5.38;2.47;;;;;;;29.86;26.03;101258.81;4902905;28;97403;-70
2023/07/17 10:13:11;;;;;;;8.63;3.53;;;;;;;29.99;25.97;101271.97;4905938;28;99361;-70
2023/07/17 10:15:38;;;;;;;8.90;3.15;;;;;;;29.77;25.47;101264.41;4903011;28;98826;-69
2023/07/17 10:18:08;;;;;;;8.40;2.97;;;;;;;29.73;25.56;101261.16;4906998;28;96817;-69
2023/07/17 10:20:38;;;;;;;8.25;3.00;;;;;;;29.77;25.84;101256.22;4905189;28;97213;-69
2023/07/17 10:23:10;;;;;;;5.93;3.15;;;;;;;29.99;26.21;101267.38;4905335;28;99066;-69
2023/07/17 10:25:37;;;;;;;8.23;3.38;;;;;;;30.17;24.99;101261.78;4906587;28;99036;-70
2023/07/17 10:28:05;;;;;;;11.57;3.58;;;;;;;30.19;24.97;101262.47;4903939;28;97219;-70
2023/07/17 10:30:33;;;;;;;6.40;3.25;;;;;;;30.39;25.01;101260.28;4906823;28;96962;-70
2023/07/17 10:33:09;;;;;;;7.97;3.08;;;;;;;30.68;25.44;101257.03;4905805;28;99023;-70
2023/07/17 10:35:47;;;;;;;9.10;3.08;;;;;;;30.16;24.89;101253.75;4904887;28;100807;-70
2023/07/17 10:38:14;;;;;;;9.18;3.33;;;;;;;30.04;25.13;101262.28;4904204;28;97044;-71
2023/07/17 10:40:41;;;;;;;7.40;3.00;;;;;;;30.03;24.60;101260.56;4909760;28;97043;-70
2023/07/17 10:43:16;;;;;;;6.53;3.20;;;;;;;29.79;24.53;101256.91;4909277;28;101485;-70
2023/07/17 10:45:44;;;;;;;9.80;2.83;;;;;;;29.84;24.67;101249.94;4904385;28;99013;-70
2023/07/17 10:48:11;;;;;;;7.22;3.22;;;;;;;29.46;25.55;101254.09;4905409;28;96888;-69
2023/07/17 10:50:39;;;;;;;7.13;3.45;;;;;;;29.65;25.88;101248.38;4901747;28;98367;-70
2023/07/17 10:53:09;;;;;;;6.43;2.95;;;;;;;29.90;25.68;101249.28;4905926;28;99502;-70
2023/07/17 10:55:36;;;;;;;5.53;2.95;;;;;;;30.40;24.34;101248.31;4905747;28;99247;-70
2023/07/17 10:58:02;;;;;;;6.78;3.17;;;;;;;30.09;24.47;101242.69;4908222;28;96813;-69
2023/07/17 11:00:29;;;;;;;9.93;2.75;;;;;;;30.32;23.72;101238.28;4904544;28;97261;-69
2023/07/17 11:02:57;;;;;;;7.25;2.65;;;;;;;30.43;23.82;101240.66;4905820;28;101769;-70
2023/07/17 11:05:23;;;;;;;5.15;2.42;;;;;;;30.86;23.46;101242.16;4904568;28;97559;-70
2023/07/17 11:07:49;;;;;;;7.50;2.60;;;;;;;30.82;23.57;101238.06;4906609;28;96833;-70
2023/07/17 11:10:16;;;;;;;9.05;2.63;;;;;;;31.53;23.35;101236.31;4906839;28;96977;-69
2023/07/17 11:12:43;;;;;;;12.13;2.90;;;;;;;31.93;22.98;101244.28;4907348;28;99366;-70
2023/07/17 11:15:15;;;;;;;5.90;2.83;;;;;;;31.05;24.71;101240.09;4904776;28;98893;-70
2023/07/17 11:17:41;;;;;;;7.53;2.83;;;;;;;31.04;24.53;101247.41;4901926;28;96837;-70
2023/07/17 11:20:10;;;;;;;10.32;2.92;;;;;;;31.01;24.36;101238.69;4908950;28;98159;-70
2023/07/17 11:22:40;;;;;;;4.32;2.55;;;;;;;30.29;23.69;101252.25;4907413;28;101908;-70
2023/07/17 11:25:08;;;;;;;8.88;3.15;;;;;;;30.43;23.70;101242.53;4907652;28;97646;-70